Time;durP1;ratioP1;P1;durP2;ratioP2;P2;SDS_P1;SDS_P2;PMS_P1;PMS_P2;Temp;Humidity;BMP_temperature;BMP_pressure;BME280_temperature;BME280_humidity;BME280_pressure;Samples;Min_cycle;Max_cycle;Signal;HPM_P1;HPM_P2
2023/11/15 00:02:14;;;;;;;27.77;9.55;;;;;;;9.41;100.00;100490.84;5008095;28;20037;-81
2023/11/15 00:04:39;;;;;;;29.65;10.05;;;;;;;9.47;100.00;100495.38;4985744;28;20042;-80
2023/11/15 00:07:06;;;;;;;32.08;10.55;;;;;;;9.43;100.00;100491.50;4994723;28;20034;-81
2023/11/15 00:09:33;;;;;;;25.90;9.27;;;;;;;9.43;100.00;100483.72;4979843;28;20198;-79
2023/11/15 00:11:59;;;;;;;26.65;9.48;;;;;;;9.45;100.00;100489.56;4975063;28;20037;-81
2023/11/15 00:14:25;;;;;;;31.23;10.10;;;;;;;9.36;100.00;100490.50;4986844;28;20049;-80
2023/11/15 00:16:50;;;;;;;30.58;9.13;;;;;;;9.45;100.00;100491.34;4991816;28;20037;-79
2023/11/15 00:19:17;;;;;;;30.58;9.73;;;;;;;9.45;100.00;100505.09;4991375;28;20045;-79
2023/11/15 00:21:43;;;;;;;33.92;9.98;;;;;;;9.41;100.00;100503.78;4973309;28;20046;-79
2023/11/15 00:24:09;;;;;;;32.65;9.90;;;;;;;9.47;100.00;100510.13;4988608;28;20042;-78
2023/11/15 00:26:35;;;;;;;21.00;7.80;;;;;;;9.41;100.00;100516.72;4967817;28;20027;-80
2023/11/15 00:29:02;;;;;;;34.67;8.45;;;;;;;9.49;100.00;100514.19;4981608;28;20061;-82
2023/11/15 00:31:28;;;;;;;29.55;8.48;;;;;;;9.50;100.00;100528.72;4982986;28;20424;-80
2023/11/15 00:33:53;;;;;;;41.03;8.32;;;;;;;9.49;100.00;100528.88;4990330;28;20038;-81
2023/11/15 00:36:20;;;;;;;27.90;8.80;;;;;;;9.50;100.00;100531.31;4978466;28;20497;-79
2023/11/15 00:38:51;;;;;;;21.95;8.15;;;;;;;9.49;100.00;100532.31;4974727;28;20037;-81
2023/11/15 00:41:18;;;;;;;25.25;7.65;;;;;;;9.48;100.00;100540.22;4995333;28;20100;-78
2023/11/15 00:43:44;;;;;;;23.60;7.18;;;;;;;9.45;100.00;100520.63;4986198;28;20449;-84
2023/11/15 00:46:13;;;;;;;22.05;8.55;;;;;;;9.42;100.00;100548.56;4977273;28;20038;-78
2023/11/15 00:48:40;;;;;;;26.67;7.20;;;;;;;9.46;100.00;100542.97;5006725;28;20042;-80
2023/11/15 00:51:06;;;;;;;25.13;7.45;;;;;;;9.46;100.00;100552.50;4984818;28;20505;-79
2023/11/15 00:53:33;;;;;;;23.30;5.82;;;;;;;9.50;100.00;100549.44;4986199;28;20045;-81
2023/11/15 00:55:59;;;;;;;21.85;6.50;;;;;;;9.50;100.00;100549.44;4986895;28;20030;-79
2023/11/15 00:58:30;;;;;;;33.25;7.20;;;;;;;9.51;100.00;100561.44;4991747;28;20044;-79
2023/11/15 01:00:59;;;;;;;33.20;7.30;;;;;;;9.41;100.00;100560.72;4986757;28;20030;-82
2023/11/15 01:03:29;;;;;;;25.00;8.15;;;;;;;9.43;100.00;100566.53;4989929;28;20400;-79
2023/11/15 01:06:00;;;;;;;24.23;7.57;;;;;;;9.39;100.00;100570.41;4968269;28;20642;-79
2023/11/15 01:08:25;;;;;;;33.78;7.43;;;;;;;9.42;100.00;100580.47;4974401;28;20041;-81
2023/11/15 01:10:52;;;;;;;33.08;8.80;;;;;;;9.47;100.00;100590.34;4980366;28;20536;-79
2023/11/15 01:13:18;;;;;;;33.33;7.88;;;;;;;9.39;100.00;100598.88;4988212;28;20038;-80
2023/11/15 01:15:43;;;;;;;29.55;8.02;;;;;;;9.41;100.00;100601.31;4974226;28;20573;-79
2023/11/15 01:18:09;;;;;;;20.33;7.47;;;;;;;9.50;100.00;100600.41;4980645;28;20525;-80
2023/11/15 01:20:36;;;;;;;20.75;8.50;;;;;;;9.48;100.00;100597.97;4971641;28;20042;-80
2023/11/15 01:23:02;;;;;;;29.92;8.32;;;;;;;9.48;100.00;100605.72;4983206;28;20456;-79
2023/11/15 01:25:30;;;;;;;26.52;7.65;;;;;;;9.37;100.00;100611.16;4988188;28;20609;-79
2023/11/15 01:27:59;;;;;;;20.75;7.57;;;;;;;9.45;100.00;100613.78;4973781;28;20064;-79
2023/11/15 01:30:28;;;;;;;27.88;7.57;;;;;;;9.35;100.00;100610.50;4976562;28;20037;-79
2023/11/15 01:32:54;;;;;;;23.00;8.48;;;;;;;9.29;100.00;100608.53;4977378;28;20033;-79
2023/11/15 01:35:23;;;;;;;20.08;7.63;;;;;;;9.28;100.00;100622.41;4976666;28;20497;-79
2023/11/15 01:37:53;;;;;;;22.33;7.30;;;;;;;9.31;100.00;100625.53;4990622;28;20609;-79
2023/11/15 01:40:20;;;;;;;26.42;6.80;;;;;;;9.32;100.00;100632.34;4994225;28;20042;-79
2023/11/15 01:42:49;;;;;;;29.73;8.23;;;;;;;9.39;100.00;100636.91;4979525;28;20041;-80
2023/11/15 01:45:16;;;;;;;26.63;7.32;;;;;;;9.39;100.00;100640.28;4981556;28;20040;-80
2023/11/15 01:47:42;;;;;;;22.20;7.35;;;;;;;9.40;100.00;100644.50;4968983;28;20100;-79
2023/11/15 01:50:10;;;;;;;23.50;7.57;;;;;;;9.37;100.00;100642.22;4987368;28;20560;-78
2023/11/15 01:52:44;;;;;;;32.55;7.68;;;;;;;9.42;100.00;100647.75;4976813;28;20046;-79
2023/11/15 01:55:13;;;;;;;21.50;6.43;;;;;;;9.37;100.00;100649.97;4991058;28;20037;-79
2023/11/15 01:57:39;;;;;;;24.77;5.97;;;;;;;9.43;100.00;100659.72;4991772;28;20519;-79
2023/11/15 02:00:10;;;;;;;28.10;6.53;;;;;;;9.45;100.00;100660.38;4979135;28;20038;-80
2023/11/15 02:02:38;;;;;;;25.92;7.00;;;;;;;9.39;100.00;100655.81;4984701;28;20097;-80
2023/11/15 02:05:05;;;;;;;22.10;5.93;;;;;;;9.53;100.00;100669.97;4985135;28;20052;-80
2023/11/15 02:07:31;;;;;;;13.77;5.75;;;;;;;9.47;100.00;100653.25;4993305;28;20036;-79
2023/11/15 02:09:56;;;;;;;15.98;6.10;;;;;;;9.41;100.00;100659.06;4992905;28;20466;-79
2023/11/15 02:12:22;;;;;;;19.58;6.70;;;;;;;9.49;100.00;100666.91;5006423;28;20032;-80
2023/11/15 02:14:48;;;;;;;19.10;6.50;;;;;;;9.44;100.00;100663.94;4983867;28;20046;-81
2023/11/15 02:17:13;;;;;;;20.95;6.32;;;;;;;9.50;100.00;100665.91;4990471;28;20052;-81
2023/11/15 02:19:39;;;;;;;22.08;6.90;;;;;;;9.48;100.00;100673.03;4989954;28;20069;-80
2023/11/15 02:22:04;;;;;;;27.48;7.15;;;;;;;9.37;100.00;100681.03;4973591;28;20059;-81
2023/11/15 02:24:31;;;;;;;17.55;6.35;;;;;;;9.47;100.00;100686.91;4995828;28;20026;-80
2023/11/15 02:26:56;;;;;;;26.88;7.65;;;;;;;9.46;100.00;100687.09;4967025;28;20037;-79
2023/11/15 02:29:22;;;;;;;22.80;7.03;;;;;;;9.54;100.00;100687.13;4973231;28;20051;-79
2023/11/15 02:31:48;;;;;;;24.20;7.43;;;;;;;9.57;100.00;100696.38;5002868;28;20030;-80
2023/11/15 02:34:13;;;;;;;21.90;6.95;;;;;;;9.62;100.00;100694.13;4976449;28;20478;-81
2023/11/15 02:36:39;;;;;;;19.17;6.93;;;;;;;9.49;100.00;100690.19;5006496;28;20040;-79
2023/11/15 02:39:06;;;;;;;32.35;7.05;;;;;;;9.59;100.00;100700.44;5011018;28;20030;-79
2023/11/15 02:41:32;;;;;;;29.33;6.78;;;;;;;9.48;100.00;100698.91;4988505;28;20062;-80
2023/11/15 02:43:58;;;;;;;27.40;7.28;;;;;;;9.51;100.00;100705.53;4985222;28;20038;-80
2023/11/15 02:46:23;;;;;;;22.52;6.97;;;;;;;9.50;100.00;100693.59;4970753;28;20034;-81
2023/11/15 02:48:50;;;;;;;23.40;6.63;;;;;;;9.50;100.00;100696.19;4988337;28;20042;-80
2023/11/15 02:51:15;;;;;;;25.10;6.22;;;;;;;9.47;100.00;100712.00;4979456;28;20040;-80
2023/11/15 02:53:41;;;;;;;21.42;6.38;;;;;;;9.48;100.00;100706.66;4981196;28;20393;-80
2023/11/15 02:56:18;;;;;;;26.70;6.10;;;;;;;9.48;100.00;100718.81;5015236;28;20049;-79
2023/11/15 02:58:44;;;;;;;18.95;5.68;;;;;;;9.53;100.00;100712.22;4999707;28;20025;-79
2023/11/15 03:01:11;;;;;;;22.95;6.10;;;;;;;9.45;100.00;100719.09;4979654;28;20053;-80
2023/11/15 03:03:37;;;;;;;23.15;6.65;;;;;;;9.42;100.00;100722.81;4994982;28;20085;-79
2023/11/15 03:06:03;;;;;;;27.60;6.55;;;;;;;9.41;100.00;100735.91;4991069;28;20117;-80
2023/11/15 03:08:32;;;;;;;23.55;6.07;;;;;;;9.45;100.00;100722.50;4980005;28;20034;-78
2023/11/15 03:10:59;;;;;;;33.55;7.10;;;;;;;9.46;100.00;100725.91;4984163;28;20041;-80
2023/11/15 03:13:24;;;;;;;23.55;7.03;;;;;;;9.50;100.00;100725.44;4980266;28;20049;-80
2023/11/15 03:15:50;;;;;;;23.88;6.78;;;;;;;9.49;100.00;100729.03;4973959;28;20038;-80
2023/11/15 03:18:16;;;;;;;20.90;5.82;;;;;;;9.43;100.00;100719.25;4985344;28;20038;-81
2023/11/15 03:20:42;;;;;;;34.67;8.73;;;;;;;9.42;100.00;100733.16;4991478;28;20038;-79
2023/11/15 03:23:09;;;;;;;23.88;5.78;;;;;;;9.41;100.00;100738.47;4990451;28;20030;-81
2023/11/15 03:25:36;;;;;;;23.35;7.22;;;;;;;9.44;100.00;100749.34;4983679;28;20042;-81
2023/11/15 03:28:01;;;;;;;21.05;6.10;;;;;;;9.45;100.00;100748.38;4973772;28;20026;-80
2023/11/15 03:30:27;;;;;;;23.85;7.85;;;;;;;9.28;100.00;100751.78;4976795;28;20614;-81
2023/11/15 03:32:52;;;;;;;31.30;8.27;;;;;;;9.36;100.00;100746.69;4974222;28;20033;-81
2023/11/15 03:35:22;;;;;;;37.25;7.10;;;;;;;9.37;100.00;100755.28;4991248;28;20038;-81
2023/11/15 03:37:47;;;;;;;31.67;5.75;;;;;;;9.37;100.00;100760.44;4991025;28;20033;-79
2023/11/15 03:40:13;;;;;;;19.75;5.18;;;;;;;9.42;100.00;100768.56;4988622;28;20042;-80
2023/11/15 03:42:38;;;;;;;34.33;5.97;;;;;;;9.38;100.00;100764.66;4986505;28;20027;-78
2023/11/15 03:45:05;;;;;;;33.15;6.38;;;;;;;9.34;100.00;100764.13;5003873;28;20084;-80
2023/11/15 03:47:32;;;;;;;22.08;5.18;;;;;;;9.35;100.00;100776.13;4985220;28;20405;-78
2023/11/15 03:50:01;;;;;;;26.98;6.30;;;;;;;9.43;100.00;100780.56;4980390;28;20036;-80
2023/11/15 03:52:26;;;;;;;20.83;4.90;;;;;;;9.35;100.00;100776.94;4987791;28;20036;-80
2023/11/15 03:54:52;;;;;;;18.65;4.57;;;;;;;9.36;100.00;100785.50;4996088;28;20408;-78
2023/11/15 03:57:18;;;;;;;21.15;4.78;;;;;;;9.45;100.00;100789.78;4974855;28;20419;-79
2023/11/15 03:59:43;;;;;;;21.20;4.55;;;;;;;9.40;100.00;100791.19;4975845;28;20046;-79
2023/11/15 04:02:09;;;;;;;22.80;4.82;;;;;;;9.38;100.00;100804.31;4990872;28;20033;-79
2023/11/15 04:04:37;;;;;;;22.45;4.78;;;;;;;9.37;100.00;100804.44;4977454;28;20030;-80
2023/11/15 04:07:03;;;;;;;22.27;4.72;;;;;;;9.41;100.00;100801.41;4980580;28;20500;-81
2023/11/15 04:09:31;;;;;;;21.00;4.20;;;;;;;9.41;100.00;100806.56;4977876;28;20034;-79
2023/11/15 04:11:57;;;;;;;13.90;4.68;;;;;;;9.45;100.00;100807.09;4972259;28;20167;-80
2023/11/15 04:14:24;;;;;;;18.05;4.10;;;;;;;9.31;100.00;100805.84;4988153;28;20045;-80
2023/11/15 04:16:51;;;;;;;27.67;3.97;;;;;;;9.31;100.00;100809.25;4980879;28;20046;-81
2023/11/15 04:19:21;;;;;;;19.77;4.63;;;;;;;9.31;100.00;100811.03;5011623;28;20054;-81
2023/11/15 04:21:49;;;;;;;14.95;4.00;;;;;;;9.24;100.00;100810.78;4978503;28;20080;-81
2023/11/15 04:24:15;;;;;;;19.40;4.28;;;;;;;9.29;100.00;100815.53;4978507;28;20035;-80
2023/11/15 04:26:41;;;;;;;21.08;4.20;;;;;;;9.21;100.00;100823.19;4998744;28;20120;-80
2023/11/15 04:29:06;;;;;;;22.38;4.05;;;;;;;9.26;100.00;100816.63;5006110;28;20411;-80
2023/11/15 04:31:35;;;;;;;16.20;3.55;;;;;;;9.24;100.00;100828.91;5002355;28;20033;-80
2023/11/15 04:34:02;;;;;;;21.55;4.22;;;;;;;9.41;100.00;100832.47;4997514;28;20025;-80
2023/11/15 04:36:28;;;;;;;23.52;4.18;;;;;;;9.33;100.00;100833.19;5003341;28;20060;-79
2023/11/15 04:38:53;;;;;;;18.58;3.75;;;;;;;9.33;100.00;100842.75;4996009;28;20040;-80
2023/11/15 04:41:20;;;;;;;22.92;5.57;;;;;;;9.27;100.00;100840.75;5021018;28;20033;-79
2023/11/15 04:43:45;;;;;;;28.00;4.07;;;;;;;9.29;100.00;100836.25;5001309;28;20100;-80
2023/11/15 04:46:11;;;;;;;25.35;4.00;;;;;;;9.22;100.00;100854.09;4996699;28;20121;-80
2023/11/15 04:48:36;;;;;;;18.67;3.63;;;;;;;9.34;100.00;100854.72;5002982;28;20545;-79
2023/11/15 04:51:02;;;;;;;14.50;3.20;;;;;;;9.30;100.00;100853.38;4996822;28;20029;-80
2023/11/15 04:53:28;;;;;;;17.60;3.20;;;;;;;9.24;100.00;100857.38;5015221;28;20086;-80
2023/11/15 04:55:53;;;;;;;24.98;3.65;;;;;;;9.21;100.00;100849.91;5011415;28;20053;-80
2023/11/15 04:58:19;;;;;;;28.55;3.65;;;;;;;9.24;100.00;100853.97;5012186;28;20041;-80
2023/11/15 05:00:44;;;;;;;24.05;4.72;;;;;;;9.30;100.00;100855.97;4999284;28;20041;-80
2023/11/15 05:03:10;;;;;;;23.92;3.17;;;;;;;9.26;100.00;100864.97;5000752;28;20025;-80
2023/11/15 05:05:36;;;;;;;29.73;6.05;;;;;;;9.27;100.00;100858.88;5015370;28;20092;-80
2023/11/15 05:08:02;;;;;;;19.48;3.10;;;;;;;9.28;100.00;100869.03;4993371;28;20058;-81
2023/11/15 05:10:27;;;;;;;22.08;3.05;;;;;;;9.31;100.00;100865.38;5029745;28;20065;-80
2023/11/15 05:12:53;;;;;;;18.60;3.00;;;;;;;9.25;100.00;100868.53;4998622;28;20037;-79
2023/11/15 05:15:18;;;;;;;23.42;4.20;;;;;;;9.29;100.00;100869.88;5005544;28;20080;-78
2023/11/15 05:17:44;;;;;;;19.08;3.90;;;;;;;9.28;100.00;100878.59;5016225;28;20033;-79
2023/11/15 05:20:10;;;;;;;16.45;3.05;;;;;;;9.30;100.00;100884.44;5006425;28;20038;-79
2023/11/15 05:22:37;;;;;;;20.52;3.78;;;;;;;9.32;100.00;100885.09;5028033;28;20098;-79
2023/11/15 05:25:04;;;;;;;29.02;3.60;;;;;;;9.19;100.00;100885.44;5010745;28;20040;-80
2023/11/15 05:27:30;;;;;;;21.30;3.33;;;;;;;9.30;100.00;100885.22;4998137;28;20124;-81
2023/11/15 05:29:56;;;;;;;19.08;2.85;;;;;;;9.35;100.00;100887.41;4992888;28;20041;-80
2023/11/15 05:32:21;;;;;;;22.60;3.15;;;;;;;9.20;100.00;100892.25;4996699;28;20393;-79
2023/11/15 05:34:47;;;;;;;24.58;3.17;;;;;;;9.24;100.00;100885.03;5028126;28;20030;-80
2023/11/15 05:37:12;;;;;;;18.52;3.20;;;;;;;9.20;100.00;100896.63;5031306;28;20042;-80
2023/11/15 05:39:38;;;;;;;17.55;3.38;;;;;;;9.24;100.00;100897.97;4994682;28;20069;-80
2023/11/15 05:42:07;;;;;;;22.23;3.72;;;;;;;9.24;100.00;100901.34;5018220;28;20520;-81
2023/11/15 05:44:33;;;;;;;14.45;2.92;;;;;;;9.25;100.00;100905.56;5016277;28;20040;-80
2023/11/15 05:46:59;;;;;;;18.88;4.10;;;;;;;9.21;100.00;100899.06;5006354;28;20033;-80
2023/11/15 05:49:26;;;;;;;22.20;4.38;;;;;;;9.20;100.00;100900.00;5007343;28;20030;-79
2023/11/15 05:51:52;;;;;;;18.35;3.10;;;;;;;9.19;100.00;100900.16;4999120;28;20057;-79
2023/11/15 05:54:17;;;;;;;18.48;3.70;;;;;;;9.21;100.00;100895.66;5005806;28;20036;-80
2023/11/15 05:56:48;;;;;;;23.98;3.70;;;;;;;9.18;100.00;100904.53;5010402;28;20029;-80
2023/11/15 05:59:14;;;;;;;20.38;3.30;;;;;;;9.21;100.00;100904.25;5006556;28;20069;-81
2023/11/15 06:01:40;;;;;;;17.25;3.38;;;;;;;9.17;100.00;100902.88;5004510;28;20121;-79
2023/11/15 06:04:07;;;;;;;25.27;3.67;;;;;;;9.08;100.00;100899.41;5011631;28;20036;-79
2023/11/15 06:06:33;;;;;;;19.15;3.80;;;;;;;9.12;100.00;100912.88;5009624;28;20034;-80
2023/11/15 06:08:59;;;;;;;18.73;4.15;;;;;;;9.14;100.00;100908.34;5011984;28;20041;-80
2023/11/15 06:11:24;;;;;;;27.83;5.10;;;;;;;9.24;100.00;100903.94;4995000;28;20091;-80
2023/11/15 06:13:50;;;;;;;21.20;3.58;;;;;;;9.24;100.00;100903.13;5015172;28;20033;-79
2023/11/15 06:16:16;;;;;;;21.92;3.72;;;;;;;9.19;100.00;100903.53;5009899;28;20048;-80
2023/11/15 06:18:44;;;;;;;23.48;4.00;;;;;;;9.14;100.00;100900.59;5030916;28;20567;-81
2023/11/15 06:21:11;;;;;;;35.03;6.38;;;;;;;9.19;100.00;100902.75;4995757;28;20540;-80
2023/11/15 06:23:36;;;;;;;28.75;6.53;;;;;;;9.20;100.00;100899.22;5007451;28;20042;-80
2023/11/15 06:26:02;;;;;;;43.13;11.63;;;;;;;9.31;100.00;100907.56;5014789;28;20044;-80
2023/11/15 06:28:28;;;;;;;26.77;5.10;;;;;;;9.28;100.00;100907.06;5001877;28;20091;-79
2023/11/15 06:30:53;;;;;;;21.73;4.95;;;;;;;9.28;100.00;100912.22;5001172;28;20064;-78
2023/11/15 06:33:19;;;;;;;25.58;5.00;;;;;;;9.30;100.00;100907.72;4997053;28;20040;-81
2023/11/15 06:35:44;;;;;;;26.77;5.05;;;;;;;9.16;100.00;100912.41;4997031;28;20034;-81
2023/11/15 06:38:10;;;;;;;25.80;6.10;;;;;;;9.25;100.00;100909.91;4996405;28;20588;-80
2023/11/15 06:40:35;;;;;;;24.38;4.32;;;;;;;9.18;100.00;100920.03;4999573;28;20037;-81
2023/11/15 06:43:01;;;;;;;22.33;5.63;;;;;;;9.19;100.00;100906.13;5014949;28;20460;-79
2023/11/15 06:45:27;;;;;;;26.95;6.20;;;;;;;9.24;100.00;100913.47;5025303;28;20053;-79
2023/11/15 06:47:53;;;;;;;26.10;9.75;;;;;;;9.16;100.00;100927.94;5016344;28;20025;-81
2023/11/15 06:50:19;;;;;;;27.55;5.07;;;;;;;9.16;100.00;100922.78;5000253;28;20041;-80
2023/11/15 06:52:45;;;;;;;24.83;5.75;;;;;;;9.18;100.00;100920.03;5000751;28;20025;-78
2023/11/15 06:55:11;;;;;;;21.48;4.55;;;;;;;9.26;100.00;100930.47;5011557;28;20044;-79
2023/11/15 06:57:38;;;;;;;27.60;7.72;;;;;;;9.24;100.00;100934.19;5000372;28;20373;-80
2023/11/15 07:00:07;;;;;;;27.52;7.22;;;;;;;9.29;100.00;100932.78;5026248;28;20070;-80
2023/11/15 07:02:33;;;;;;;24.23;5.20;;;;;;;9.23;100.00;100935.97;5010888;28;20040;-80
2023/11/15 07:04:59;;;;;;;23.00;5.57;;;;;;;9.25;100.00;100938.38;4999920;28;20049;-79
2023/11/15 07:07:25;;;;;;;22.30;7.63;;;;;;;9.32;100.00;100945.44;5014228;28;20041;-79
2023/11/15 07:09:50;;;;;;;21.48;6.95;;;;;;;9.24;100.00;100954.88;4992523;28;20038;-80
2023/11/15 07:12:16;;;;;;;23.98;4.68;;;;;;;9.30;100.00;100954.28;4983498;28;20030;-79
2023/11/15 07:14:44;;;;;;;26.55;5.35;;;;;;;9.25;100.00;100954.75;4972380;28;20510;-79
2023/11/15 07:17:12;;;;;;;20.70;4.75;;;;;;;9.26;100.00;100958.13;5006886;28;20030;-80
2023/11/15 07:19:38;;;;;;;22.73;4.40;;;;;;;9.33;100.00;100966.97;4974993;28;20415;-79
2023/11/15 07:22:04;;;;;;;21.05;4.95;;;;;;;9.37;100.00;100959.72;4978348;28;20045;-78
2023/11/15 07:24:29;;;;;;;26.83;4.72;;;;;;;9.39;100.00;100962.97;4997787;28;20034;-79
2023/11/15 07:26:56;;;;;;;18.13;4.25;;;;;;;9.32;100.00;100966.16;4997434;28;20032;-81
2023/11/15 07:29:22;;;;;;;30.30;4.28;;;;;;;9.39;100.00;100966.38;5007232;28;20061;-83
2023/11/15 07:31:51;;;;;;;18.27;3.42;;;;;;;9.32;100.00;100970.50;4988458;28;20443;-81
2023/11/15 07:34:28;;;;;;;19.17;3.70;;;;;;;9.27;100.00;100972.72;4978360;28;20076;-80
2023/11/15 07:36:55;;;;;;;26.13;3.90;;;;;;;9.31;100.00;100979.22;4996807;28;20035;-82
2023/11/15 07:39:27;;;;;;;20.75;3.90;;;;;;;9.31;100.00;100985.22;4986905;28;20026;-79
2023/11/15 07:41:54;;;;;;;19.00;3.72;;;;;;;9.31;100.00;100992.97;4993634;28;20084;-81
2023/11/15 07:44:20;;;;;;;29.88;6.78;;;;;;;9.37;100.00;100996.75;4978201;28;20068;-82
2023/11/15 07:46:46;;;;;;;23.27;5.70;;;;;;;9.39;100.00;101001.81;4975124;28;20025;-82
2023/11/15 07:49:18;;;;;;;23.23;6.03;;;;;;;9.42;100.00;101004.09;4997468;28;20037;-81
2023/11/15 07:51:44;;;;;;;29.35;5.68;;;;;;;9.43;100.00;101011.72;4994423;28;20043;-82
2023/11/15 07:54:10;;;;;;;18.10;4.55;;;;;;;9.47;100.00;101018.22;4980512;28;20049;-79
2023/11/15 07:56:35;;;;;;;22.77;4.90;;;;;;;9.50;100.00;101015.38;4982193;28;20049;-81
2023/11/15 07:59:01;;;;;;;23.83;4.97;;;;;;;9.54;100.00;101018.50;5000347;28;20419;-81
2023/11/15 08:01:27;;;;;;;19.27;3.95;;;;;;;9.45;100.00;101022.75;4984730;28;20049;-80
2023/11/15 08:03:53;;;;;;;13.73;3.75;;;;;;;9.39;100.00;101028.50;4994628;28;20033;-79
2023/11/15 08:06:19;;;;;;;24.13;5.53;;;;;;;9.38;100.00;101038.97;4991451;28;20041;-78
2023/11/15 08:08:44;;;;;;;21.50;4.35;;;;;;;9.48;100.00;101035.41;4987093;28;20034;-81
2023/11/15 08:11:11;;;;;;;24.15;4.50;;;;;;;9.53;100.00;101048.75;4994604;28;20038;-83
2023/11/15 08:13:37;;;;;;;29.17;5.43;;;;;;;9.62;100.00;101052.22;4978216;28;20030;-80
2023/11/15 08:16:03;;;;;;;21.73;4.20;;;;;;;9.66;100.00;101050.16;5009535;28;20060;-78
2023/11/15 08:18:30;;;;;;;22.33;4.45;;;;;;;9.58;100.00;101052.69;5003861;28;20129;-79
2023/11/15 08:20:56;;;;;;;14.18;3.72;;;;;;;9.54;100.00;101046.97;4996681;28;20038;-80
2023/11/15 08:23:23;;;;;;;18.80;4.10;;;;;;;9.54;100.00;101059.91;4995906;28;20052;-82
2023/11/15 08:25:52;;;;;;;25.50;3.17;;;;;;;9.56;100.00;101060.56;4982441;28;20129;-80
2023/11/15 08:28:19;;;;;;;21.13;3.03;;;;;;;9.63;100.00;101055.66;5006625;28;20034;-80
2023/11/15 08:30:45;;;;;;;14.77;3.28;;;;;;;9.70;100.00;101057.53;5004934;28;20065;-81
2023/11/15 08:33:16;;;;;;;24.90;3.70;;;;;;;9.85;100.00;101072.56;4995327;28;20060;-82
2023/11/15 08:35:43;;;;;;;22.55;3.95;;;;;;;9.96;100.00;101056.00;4992796;28;20034;-81
2023/11/15 08:38:09;;;;;;;20.30;3.72;;;;;;;9.98;100.00;101054.91;4982008;28;20030;-79
2023/11/15 08:40:36;;;;;;;21.13;3.35;;;;;;;9.94;100.00;101063.94;4981584;28;20048;-82
2023/11/15 08:43:02;;;;;;;19.05;4.05;;;;;;;10.26;100.00;101066.03;4989019;28;20034;-80
2023/11/15 08:45:28;;;;;;;15.75;2.88;;;;;;;10.24;100.00;101070.56;4978704;28;20030;-81
2023/11/15 08:47:56;;;;;;;26.48;4.15;;;;;;;10.23;100.00;101078.50;4995744;28;20034;-81
2023/11/15 08:50:24;;;;;;;16.25;2.80;;;;;;;10.14;100.00;101086.16;4976875;28;20041;-80
2023/11/15 08:52:51;;;;;;;29.83;5.75;;;;;;;10.09;100.00;101090.16;4989557;28;20545;-83
2023/11/15 08:55:16;;;;;;;20.63;5.22;;;;;;;10.11;100.00;101096.00;4972646;28;20034;-78
2023/11/15 08:57:42;;;;;;;14.80;2.88;;;;;;;10.17;100.00;101090.28;4975988;28;20042;-79
2023/11/15 09:00:15;;;;;;;15.65;3.80;;;;;;;10.16;100.00;101098.19;5006217;28;20097;-82
2023/11/15 09:02:46;;;;;;;26.90;4.13;;;;;;;10.22;100.00;101093.22;4985527;28;20602;-79
2023/11/15 09:05:16;;;;;;;16.63;3.10;;;;;;;10.29;100.00;101106.41;4984212;28;20054;-80
2023/11/15 09:07:41;;;;;;;14.18;3.08;;;;;;;10.27;100.00;101114.34;5004235;28;20105;-81
2023/11/15 09:10:08;;;;;;;19.67;2.92;;;;;;;10.19;100.00;101118.59;5002030;28;20533;-80
2023/11/15 09:12:36;;;;;;;25.13;3.53;;;;;;;10.19;100.00;101116.00;4994417;28;20037;-81
2023/11/15 09:15:11;;;;;;;24.15;3.83;;;;;;;10.10;100.00;101121.13;4977341;28;20121;-82
2023/11/15 09:17:38;;;;;;;16.98;3.30;;;;;;;10.13;100.00;101126.03;4989259;28;20109;-81
2023/11/15 09:20:08;;;;;;;16.95;3.20;;;;;;;10.16;100.00;101124.91;4989404;28;20049;-80
2023/11/15 09:22:35;;;;;;;23.88;3.35;;;;;;;10.28;100.00;101123.75;4993018;28;20524;-82
2023/11/15 09:25:01;;;;;;;28.35;3.50;;;;;;;10.17;100.00;101123.13;4979529;28;20048;-82
2023/11/15 09:27:28;;;;;;;15.43;3.45;;;;;;;10.23;100.00;101123.38;5008964;28;20520;-81
2023/11/15 09:29:54;;;;;;;14.30;2.65;;;;;;;10.22;100.00;101123.50;4982264;28;20409;-81
2023/11/15 09:32:20;;;;;;;19.63;3.03;;;;;;;10.24;100.00;101126.75;5018682;28;20063;-83
2023/11/15 09:34:48;;;;;;;17.05;2.88;;;;;;;10.36;100.00;101124.81;4981243;28;20037;-81
2023/11/15 09:37:13;;;;;;;22.23;3.20;;;;;;;10.38;100.00;101122.88;4984781;28;20101;-79
2023/11/15 09:39:39;;;;;;;22.17;2.92;;;;;;;10.23;100.00;101125.97;4974796;28;20046;-80
2023/11/15 09:42:06;;;;;;;24.88;3.00;;;;;;;10.30;100.00;101132.22;4974223;28;20026;-82
2023/11/15 09:44:35;;;;;;;20.80;2.90;;;;;;;10.46;100.00;101125.56;4975896;28;20507;-82
2023/11/15 09:47:03;;;;;;;14.85;3.53;;;;;;;10.56;100.00;101134.09;4982140;28;20047;-81
2023/11/15 09:49:31;;;;;;;18.15;3.08;;;;;;;10.60;100.00;101126.81;4994320;28;20041;-80
2023/11/15 09:51:59;;;;;;;17.10;2.67;;;;;;;10.53;100.00;101129.22;4988041;28;20053;-82
2023/11/15 09:54:26;;;;;;;19.00;2.55;;;;;;;10.58;100.00;101134.75;4977913;28;20163;-83
2023/11/15 09:56:51;;;;;;;16.38;3.28;;;;;;;10.62;100.00;101135.28;4978210;28;20493;-81
2023/11/15 09:59:18;;;;;;;16.13;2.70;;;;;;;10.65;100.00;101137.59;5013966;28;20072;-80
2023/11/15 10:01:48;;;;;;;17.15;3.15;;;;;;;10.55;100.00;101140.25;5008768;28;20029;-80
2023/11/15 10:04:24;;;;;;;18.08;3.22;;;;;;;10.43;100.00;101144.81;4986336;28;20061;-79
2023/11/15 10:06:52;;;;;;;13.73;2.92;;;;;;;10.39;100.00;101140.06;4979172;28;20116;-81
2023/11/15 10:09:35;;;;;;;13.70;2.22;;;;;;;10.50;100.00;101143.25;4992957;28;20034;-82
2023/11/15 10:12:03;;;;;;;25.17;2.60;;;;;;;10.51;100.00;101144.09;4978171;28;20037;-82
2023/11/15 10:14:29;;;;;;;17.88;3.40;;;;;;;10.74;100.00;101141.03;5004607;28;20460;-82
2023/11/15 10:16:55;;;;;;;15.77;2.35;;;;;;;10.84;100.00;101147.78;4988531;28;20038;-80
2023/11/15 10:19:26;;;;;;;12.90;3.38;;;;;;;10.83;100.00;101146.19;4971538;28;20057;-82
2023/11/15 10:22:04;;;;;;;12.65;2.65;;;;;;;10.70;100.00;101143.94;4992720;28;20053;-81
2023/11/15 10:24:31;;;;;;;18.83;2.63;;;;;;;10.65;100.00;101146.16;4985515;28;20034;-82
2023/11/15 10:26:58;;;;;;;23.35;3.40;;;;;;;10.77;100.00;101151.94;4991089;28;20045;-82
2023/11/15 10:29:26;;;;;;;20.15;2.78;;;;;;;10.66;100.00;101153.00;4974539;28;20041;-80
2023/11/15 10:31:55;;;;;;;19.67;4.72;;;;;;;10.83;100.00;101150.53;4983230;28;20041;-81
2023/11/15 10:34:24;;;;;;;14.75;2.55;;;;;;;10.93;100.00;101148.69;4992165;28;20030;-80
2023/11/15 10:37:10;;;;;;;9.13;1.95;;;;;;;10.96;100.00;101148.38;4991477;28;20042;-80
2023/11/15 10:39:42;;;;;;;18.92;2.50;;;;;;;10.94;100.00;101152.91;4982977;28;20490;-81
2023/11/15 10:42:15;;;;;;;22.38;2.67;;;;;;;10.80;100.00;101153.44;4980225;28;20034;-80
2023/11/15 10:44:47;;;;;;;22.25;2.85;;;;;;;10.96;100.00;101150.97;4980751;28;20148;-81
2023/11/15 10:47:25;;;;;;;15.45;2.60;;;;;;;10.89;100.00;101150.75;4981171;28;20030;-83
2023/11/15 10:50:01;;;;;;;15.65;3.22;;;;;;;10.89;100.00;101150.75;4984261;28;20065;-83
2023/11/15 10:52:29;;;;;;;10.77;2.47;;;;;;;11.00;100.00;101154.06;4981868;28;20042;-85
2023/11/15 10:54:56;;;;;;;10.82;2.75;;;;;;;10.99;100.00;101153.28;4993067;28;20032;-81
2023/11/15 10:57:22;;;;;;;14.43;2.42;;;;;;;10.98;100.00;101148.22;4985296;28;20379;-79
2023/11/15 10:59:50;;;;;;;14.93;2.90;;;;;;;10.95;100.00;101140.75;4966973;28;20056;-81
2023/11/15 11:02:17;;;;;;;11.23;2.28;;;;;;;11.03;100.00;101149.41;4979446;28;20053;-81
2023/11/15 11:04:44;;;;;;;16.35;2.58;;;;;;;11.06;100.00;101156.91;4992665;28;20040;-81
2023/11/15 11:07:38;;;;;;;13.50;2.63;;;;;;;11.19;100.00;101147.91;5009501;28;20065;-81
2023/11/15 11:10:23;;;;;;;14.80;2.10;;;;;;;11.20;100.00;101157.31;5007307;28;20544;-82
2023/11/15 11:12:49;;;;;;;17.75;3.50;;;;;;;11.30;99.18;101145.06;4975702;28;20069;-79
2023/11/15 11:15:18;;;;;;;14.05;2.50;;;;;;;11.39;100.00;101146.75;4991584;28;20040;-82